Time;durP1;ratioP1;P1;durP2;ratioP2;P2;SDS_P1;SDS_P2;PMS_P1;PMS_P2;Temp;Humidity;BMP_temperature;BMP_pressure;BME280_temperature;BME280_humidity;BME280_pressure;Samples;Min_cycle;Max_cycle;Signal;HPM_P1;HPM_P2
2022/05/09 00:01:34;;;;;;;3.35;1.20;;;;;;;8.02;65.76;102014.28;5056138;28;20035;-66
2022/05/09 00:04:00;;;;;;;4.18;1.60;;;;;;;7.98;65.76;102019.41;5056142;28;20082;-66
2022/05/09 00:06:25;;;;;;;5.85;1.63;;;;;;;7.94;66.01;102025.44;5073632;28;20135;-66
2022/05/09 00:08:51;;;;;;;6.05;1.90;;;;;;;7.90;65.87;102016.69;5073253;28;20079;-66
2022/05/09 00:11:16;;;;;;;9.23;2.28;;;;;;;7.96;65.50;102026.38;5072002;28;20047;-66
2022/05/09 00:13:42;;;;;;;5.07;1.60;;;;;;;7.99;65.33;102023.81;5073516;28;20040;-66
2022/05/09 00:16:08;;;;;;;5.47;1.55;;;;;;;7.97;65.29;102023.75;5073324;28;20072;-66
2022/05/09 00:18:33;;;;;;;4.35;1.20;;;;;;;7.99;65.14;102027.31;5072347;28;20102;-66
2022/05/09 00:20:59;;;;;;;3.65;1.38;;;;;;;8.01;64.84;102028.19;5072807;28;20040;-66
2022/05/09 00:23:24;;;;;;;2.90;1.10;;;;;;;7.95;65.00;102022.88;5073639;28;20033;-66
2022/05/09 00:25:50;;;;;;;4.80;1.35;;;;;;;8.04;64.55;102017.78;5073905;28;20123;-66
2022/05/09 00:28:15;;;;;;;3.17;0.98;;;;;;;7.99;64.67;102022.06;5073594;28;20098;-66
2022/05/09 00:30:41;;;;;;;5.90;1.30;;;;;;;7.96;64.57;102023.75;5072209;28;20037;-67
2022/05/09 00:33:06;;;;;;;5.78;1.35;;;;;;;7.99;64.46;102032.53;5073715;28;20032;-66
2022/05/09 00:35:32;;;;;;;3.42;0.90;;;;;;;8.05;64.24;102029.13;5055561;28;20028;-66
2022/05/09 00:37:57;;;;;;;5.00;1.23;;;;;;;8.02;64.26;102027.34;5073921;28;20037;-66
2022/05/09 00:40:23;;;;;;;3.70;1.17;;;;;;;8.05;64.08;102032.63;5072498;28;20492;-67
2022/05/09 00:42:51;;;;;;;2.75;1.10;;;;;;;8.02;64.11;102034.31;5069925;28;20032;-67
2022/05/09 00:45:19;;;;;;;5.82;1.17;;;;;;;7.96;64.31;102035.09;5071972;28;20106;-67
2022/05/09 00:47:45;;;;;;;3.80;1.10;;;;;;;7.92;64.15;102033.28;5055621;28;20037;-67
2022/05/09 00:50:16;;;;;;;4.63;1.30;;;;;;;7.87;64.41;102032.34;5085559;28;20518;-67
2022/05/09 00:52:52;;;;;;;3.53;1.10;;;;;;;7.77;64.56;102036.53;5079956;28;20043;-67
2022/05/09 00:55:48;;;;;;;2.83;1.20;;;;;;;7.72;64.64;102042.56;5072236;28;20040;-67
2022/05/09 00:58:18;;;;;;;4.43;1.10;;;;;;;7.59;65.22;102044.97;5071852;28;20037;-67
2022/05/09 01:00:45;;;;;;;4.43;1.10;;;;;;;7.54;65.14;102041.41;5092515;28;20032;-66
2022/05/09 01:03:18;;;;;;;4.75;1.60;;;;;;;7.51;65.23;102043.09;5084725;28;20036;-67
2022/05/09 01:05:50;;;;;;;2.72;0.90;;;;;;;7.53;65.22;102049.22;5086472;28;20048;-67
2022/05/09 01:08:16;;;;;;;4.73;1.30;;;;;;;7.52;65.14;102057.94;5077644;28;20476;-67
2022/05/09 01:10:41;;;;;;;5.00;1.13;;;;;;;7.41;65.60;102058.59;5075367;28;20271;-67
2022/05/09 01:13:11;;;;;;;7.90;1.77;;;;;;;7.37;65.52;102059.41;5086867;28;20036;-67
2022/05/09 01:15:40;;;;;;;6.35;1.55;;;;;;;7.36;65.46;102048.91;5069888;28;20102;-66
2022/05/09 01:18:08;;;;;;;4.13;1.30;;;;;;;7.34;65.76;102048.00;5078167;28;20031;-67
2022/05/09 01:20:34;;;;;;;3.50;1.20;;;;;;;7.31;65.95;102055.81;5075976;28;20032;-66
2022/05/09 01:23:00;;;;;;;2.45;1.05;;;;;;;7.27;66.01;102040.91;5073679;28;20483;-66
2022/05/09 01:25:29;;;;;;;4.55;1.20;;;;;;;7.27;66.18;102046.16;5071906;28;20041;-66
2022/05/09 01:27:55;;;;;;;5.70;1.45;;;;;;;7.24;66.19;102046.09;5051590;28;20445;-67
2022/05/09 01:30:26;;;;;;;3.67;1.20;;;;;;;7.22;66.32;102047.78;5069206;28;20041;-67
2022/05/09 01:33:00;;;;;;;3.95;1.38;;;;;;;7.18;66.50;102048.56;5068682;28;20028;-66
2022/05/09 01:35:34;;;;;;;3.58;1.05;;;;;;;7.20;66.51;102046.88;5072808;28;20127;-66
2022/05/09 01:38:13;;;;;;;3.70;1.27;;;;;;;7.22;66.53;102050.38;5073048;28;20032;-66
2022/05/09 01:40:38;;;;;;;6.28;1.50;;;;;;;7.23;66.41;102054.78;5075077;28;20386;-66
2022/05/09 01:43:04;;;;;;;4.30;1.85;;;;;;;7.15;66.65;102050.28;5090187;28;20111;-66
2022/05/09 01:45:29;;;;;;;3.38;1.38;;;;;;;7.16;66.62;102051.16;5089750;28;20059;-66
2022/05/09 01:50:38;;;;;;;3.58;1.40;;;;;;;7.20;66.45;102057.34;5089814;28;20399;-67
2022/05/09 01:53:04;;;;;;;4.55;1.63;;;;;;;7.09;67.03;102055.38;5091337;28;20036;-66
2022/05/09 01:55:29;;;;;;;4.50;1.23;;;;;;;7.13;66.84;102067.66;5093018;28;20029;-67
2022/05/09 01:57:55;;;;;;;5.75;1.52;;;;;;;7.11;66.93;102064.16;5096841;28;20028;-66
2022/05/09 02:00:20;;;;;;;5.65;1.42;;;;;;;7.10;67.08;102067.63;5094888;28;20036;-66
2022/05/09 02:02:46;;;;;;;4.10;1.10;;;;;;;7.08;67.05;102065.81;5084246;28;20529;-67
2022/05/09 02:05:12;;;;;;;3.65;1.00;;;;;;;7.04;67.18;102062.25;5075464;28;20051;-66
2022/05/09 02:07:38;;;;;;;5.35;1.02;;;;;;;6.97;67.49;102068.22;5054461;28;20041;-66
2022/05/09 02:10:04;;;;;;;7.20;1.35;;;;;;;6.99;67.37;102063.03;5079498;28;20028;-66
2022/05/09 02:12:30;;;;;;;5.93;1.20;;;;;;;7.00;67.29;102065.66;5065826;28;20029;-66
2022/05/09 02:14:55;;;;;;;3.97;1.60;;;;;;;6.99;67.31;102063.03;5090947;28;20043;-67
2022/05/09 02:17:21;;;;;;;3.63;1.17;;;;;;;7.04;67.16;102070.09;5096646;28;20521;-66
2022/05/09 02:19:46;;;;;;;4.32;1.10;;;;;;;6.98;67.45;102071.72;5081718;28;20119;-67
2022/05/09 02:22:12;;;;;;;6.43;1.52;;;;;;;7.01;67.16;102072.66;5075571;28;20035;-67
2022/05/09 02:24:41;;;;;;;4.63;1.50;;;;;;;6.97;67.46;102070.84;5074243;28;20472;-67
2022/05/09 02:27:09;;;;;;;4.85;1.27;;;;;;;6.96;67.37;102079.53;5075888;28;20114;-67
2022/05/09 02:29:35;;;;;;;6.50;1.52;;;;;;;6.98;67.46;102088.31;5058221;28;20037;-67
2022/05/09 02:32:02;;;;;;;4.70;1.27;;;;;;;6.99;67.26;102087.44;5078557;28;20032;-66
2022/05/09 02:34:28;;;;;;;3.70;1.45;;;;;;;6.97;67.16;102088.25;5094942;28;20036;-66
2022/05/09 02:36:54;;;;;;;3.47;1.50;;;;;;;6.94;67.27;102081.22;5092325;28;20099;-66
2022/05/09 02:39:19;;;;;;;11.82;1.98;;;;;;;6.93;67.46;102089.03;5075783;28;20040;-66
2022/05/09 02:41:45;;;;;;;3.83;1.73;;;;;;;6.88;67.53;102081.97;5075709;28;20107;-66
2022/05/09 02:44:10;;;;;;;4.63;1.60;;;;;;;6.94;67.43;102091.66;5086161;28;20040;-66
2022/05/09 02:46:36;;;;;;;5.93;1.40;;;;;;;6.93;67.52;102089.91;5096038;28;20036;-66
2022/05/09 02:49:02;;;;;;;5.32;1.30;;;;;;;6.97;67.16;102089.13;5075855;28;20185;-66
2022/05/09 02:51:28;;;;;;;5.18;1.40;;;;;;;6.99;67.04;102095.28;5094647;28;20077;-66
2022/05/09 02:53:58;;;;;;;8.43;1.85;;;;;;;7.00;66.94;102091.81;5083012;28;20092;-66
2022/05/09 02:56:25;;;;;;;3.70;1.40;;;;;;;7.02;66.88;102092.75;5075372;28;20158;-67
2022/05/09 02:58:50;;;;;;;6.03;1.65;;;;;;;7.03;66.98;102096.22;5094683;28;20028;-66
2022/05/09 03:01:15;;;;;;;9.38;1.92;;;;;;;7.01;66.93;102096.19;5091584;28;20667;-66
2022/05/09 03:06:26;;;;;;;4.05;1.40;;;;;;;7.04;66.84;102093.63;5095079;28;20063;-67
2022/05/09 03:08:54;;;;;;;5.78;1.50;;;;;;;7.03;66.63;102102.34;5092803;28;20036;-65
2022/05/09 03:11:20;;;;;;;5.22;1.58;;;;;;;7.11;66.68;102103.38;5059032;28;20078;-65
2022/05/09 03:13:46;;;;;;;3.80;1.35;;;;;;;7.19;66.29;102097.41;5087291;28;20032;-65
2022/05/09 03:16:11;;;;;;;5.57;1.77;;;;;;;7.19;66.27;102105.25;5073374;28;20174;-66
2022/05/09 03:18:37;;;;;;;7.78;1.90;;;;;;;7.20;66.19;102104.41;5089613;28;20095;-67
2022/05/09 03:21:03;;;;;;;4.75;1.70;;;;;;;7.18;66.15;102100.84;5077294;28;20037;-66
2022/05/09 03:23:29;;;;;;;3.78;1.38;;;;;;;7.24;66.10;102106.22;5075450;28;20040;-65
2022/05/09 03:25:55;;;;;;;3.20;1.20;;;;;;;7.27;65.96;102106.28;5072598;28;20037;-65
2022/05/09 03:28:26;;;;;;;4.38;1.30;;;;;;;7.32;66.02;102115.09;5054160;28;20040;-66
2022/05/09 03:30:54;;;;;;;6.40;1.25;;;;;;;7.37;65.73;102109.09;5075329;28;20063;-66
2022/05/09 03:33:20;;;;;;;2.95;1.33;;;;;;;7.41;65.74;102112.66;5072551;28;20112;-66
2022/05/09 03:35:46;;;;;;;4.90;1.77;;;;;;;7.41;65.76;102125.72;5073116;28;20037;-66
2022/05/09 03:38:12;;;;;;;4.20;1.45;;;;;;;7.43;65.68;102129.25;5085360;28;20059;-66
2022/05/09 03:40:38;;;;;;;7.82;1.73;;;;;;;7.51;65.43;102132.03;5079540;28;20032;-67
2022/05/09 03:43:05;;;;;;;8.40;2.00;;;;;;;7.55;65.16;102132.09;5072499;28;20032;-66
2022/05/09 03:45:31;;;;;;;5.18;2.42;;;;;;;7.57;65.29;102124.28;5040559;28;20044;-66
2022/05/09 03:47:57;;;;;;;5.70;1.52;;;;;;;7.55;65.32;102119.03;5083334;28;20176;-66
2022/05/09 03:50:23;;;;;;;4.50;1.60;;;;;;;7.61;65.18;102128.72;5073526;28;20052;-65
2022/05/09 03:52:48;;;;;;;6.63;1.73;;;;;;;7.65;65.16;102128.78;5056634;28;20055;-66
2022/05/09 03:55:14;;;;;;;6.03;1.45;;;;;;;7.68;65.01;102130.59;5082161;28;20032;-66
2022/05/09 03:57:47;;;;;;;7.43;1.38;;;;;;;7.74;64.88;102129.81;5076483;28;20040;-66
2022/05/09 04:00:14;;;;;;;4.63;1.48;;;;;;;7.79;64.81;102134.28;5073091;28;20040;-66
2022/05/09 04:02:41;;;;;;;4.88;1.48;;;;;;;7.88;64.68;102138.78;5072861;28;20040;-66
2022/05/09 04:05:08;;;;;;;7.97;1.23;;;;;;;7.95;64.39;102139.78;5055634;28;20057;-66
2022/05/09 04:07:34;;;;;;;8.32;1.50;;;;;;;8.02;64.27;102147.78;5070636;28;20048;-65
2022/05/09 04:09:59;;;;;;;5.82;1.50;;;;;;;8.08;64.06;102147.88;5073314;28;20036;-66
2022/05/09 04:12:25;;;;;;;6.45;1.00;;;;;;;8.19;63.87;102144.56;5072101;28;20047;-65
2022/05/09 04:17:35;;;;;;;3.17;1.02;;;;;;;8.41;63.24;102140.56;5074947;28;20186;-66
2022/05/09 04:20:00;;;;;;;1.90;0.98;;;;;;;8.49;62.95;102138.94;5072469;28;20033;-66
2022/05/09 04:22:26;;;;;;;3.85;0.82;;;;;;;8.69;62.42;102142.72;5072749;28;20727;-66
2022/05/09 04:24:51;;;;;;;4.75;1.10;;;;;;;8.76;62.28;102143.69;5071449;28;20038;-66
2022/05/09 04:27:17;;;;;;;4.53;1.15;;;;;;;8.86;61.98;102148.22;5079046;28;20094;-66
2022/05/09 04:29:42;;;;;;;2.28;0.90;;;;;;;8.97;61.70;102143.97;5071295;28;20111;-66
2022/05/09 04:32:08;;;;;;;3.75;0.82;;;;;;;9.02;61.57;102146.69;5054839;28;20427;-67
2022/05/09 04:34:33;;;;;;;3.50;0.93;;;;;;;9.10;61.32;102155.50;5052929;28;20037;-66
2022/05/09 04:36:59;;;;;;;2.88;1.20;;;;;;;9.24;61.06;102158.28;5072453;28;20052;-66
2022/05/09 04:39:24;;;;;;;4.60;1.40;;;;;;;9.31;60.87;102154.88;5072571;28;20032;-67
2022/05/09 04:41:50;;;;;;;3.60;1.10;;;;;;;9.44;60.34;102151.53;5072856;28;20037;-67
2022/05/09 04:44:15;;;;;;;3.40;0.90;;;;;;;9.49;59.90;102159.44;5072286;28;20029;-66
2022/05/09 04:46:42;;;;;;;2.28;0.70;;;;;;;9.57;59.79;102157.78;5071790;28;20537;-67
2022/05/09 04:49:08;;;;;;;4.47;1.20;;;;;;;9.64;59.49;102164.88;5070852;28;20036;-67
2022/05/09 04:51:33;;;;;;;2.08;1.02;;;;;;;9.69;59.35;102157.03;5037585;28;20036;-67
2022/05/09 04:53:58;;;;;;;4.78;1.17;;;;;;;9.77;59.24;102163.25;5072429;28;20413;-66
2022/05/09 04:56:24;;;;;;;2.25;1.00;;;;;;;9.92;58.63;102160.78;5072583;28;20036;-66
2022/05/09 04:58:49;;;;;;;2.83;1.25;;;;;;;10.02;58.46;102167.00;5072520;28;20404;-66
2022/05/09 05:01:14;;;;;;;5.55;1.08;;;;;;;10.03;57.89;102166.13;5071830;28;20066;-66
2022/05/09 05:03:40;;;;;;;3.00;0.90;;;;;;;10.15;57.61;102170.63;5072754;28;20059;-67
2022/05/09 05:06:06;;;;;;;3.30;1.02;;;;;;;10.22;57.21;102175.06;5071834;28;20079;-66
2022/05/09 05:08:35;;;;;;;2.90;0.77;;;;;;;10.27;56.57;102179.50;5075508;28;20040;-66
2022/05/09 05:11:02;;;;;;;5.25;0.82;;;;;;;10.25;56.17;102185.59;5054991;28;20040;-67
2022/05/09 05:13:28;;;;;;;4.85;0.82;;;;;;;10.28;56.44;102188.25;5056634;28;20061;-66
2022/05/09 05:15:57;;;;;;;1.95;0.98;;;;;;;10.29;54.72;102182.13;5072402;28;20024;-63
2022/05/09 05:18:26;;;;;;;2.92;1.27;;;;;;;10.49;55.07;102180.56;5049459;28;20498;-66
2022/05/09 05:20:52;;;;;;;8.65;5.00;;;;;;;10.66;54.08;102171.91;5069997;28;20029;-67
2022/05/09 05:23:18;;;;;;;6.60;3.17;;;;;;;10.73;52.74;102173.69;5074806;28;20212;-66
2022/05/09 05:25:45;;;;;;;5.25;3.03;;;;;;;10.89;52.20;102183.47;5052177;28;20178;-66
2022/05/09 05:28:15;;;;;;;3.92;1.50;;;;;;;10.93;52.17;102179.97;5071214;28;20056;-65
2022/05/09 05:30:41;;;;;;;2.88;0.80;;;;;;;10.95;52.66;102183.47;5073047;28;20024;-66
2022/05/09 05:33:07;;;;;;;3.67;0.90;;;;;;;10.97;51.99;102179.13;5072903;28;20024;-65
2022/05/09 05:35:33;;;;;;;6.00;1.00;;;;;;;11.03;50.18;102179.13;5075497;28;20040;-65
2022/05/09 05:38:05;;;;;;;3.20;0.75;;;;;;;11.15;48.89;102172.19;5074426;28;20036;-66
2022/05/09 05:40:30;;;;;;;2.38;0.82;;;;;;;11.29;50.21;102187.16;5070577;28;20075;-66
2022/05/09 05:42:56;;;;;;;5.22;1.05;;;;;;;11.45;49.86;102187.19;5078208;28;20107;-67
2022/05/09 05:45:23;;;;;;;1.75;0.90;;;;;;;11.52;48.66;102192.47;5052040;28;20473;-67
2022/05/09 05:47:49;;;;;;;2.38;1.40;;;;;;;11.52;48.68;102189.84;5085650;28;20511;-66
2022/05/09 05:50:17;;;;;;;3.63;2.30;;;;;;;11.68;48.53;102195.16;5075042;28;20491;-66
2022/05/09 05:52:42;;;;;;;4.68;1.95;;;;;;;11.72;47.23;102196.94;5075788;28;20028;-67
2022/05/09 05:55:09;;;;;;;5.70;1.08;;;;;;;11.76;47.08;102203.97;5071991;28;20025;-67
2022/05/09 05:57:38;;;;;;;5.82;1.20;;;;;;;11.78;46.22;102191.69;5073804;28;20044;-67
2022/05/09 06:00:06;;;;;;;7.05;1.48;;;;;;;11.81;46.19;102194.34;5058644;28;20028;-67
2022/05/09 06:02:32;;;;;;;2.45;1.23;;;;;;;11.98;46.26;102190.00;5074412;28;20052;-66
2022/05/09 06:04:57;;;;;;;8.02;1.30;;;;;;;12.00;46.24;102182.97;5074301;28;20569;-67
2022/05/09 06:07:24;;;;;;;2.30;0.93;;;;;;;12.14;45.74;102190.03;5074294;28;20083;-67
2022/05/09 06:09:51;;;;;;;3.67;0.95;;;;;;;12.10;45.24;102185.63;5073223;28;20086;-68
2022/05/09 06:12:19;;;;;;;3.72;1.13;;;;;;;12.18;44.25;102192.66;5075381;28;20044;-67
2022/05/09 06:14:45;;;;;;;4.68;1.23;;;;;;;12.13;43.46;102196.16;5049302;28;20415;-66
2022/05/09 06:17:10;;;;;;;4.45;1.58;;;;;;;12.21;44.00;102191.78;5072213;28;20025;-65
2022/05/09 06:19:38;;;;;;;5.50;1.80;;;;;;;12.33;43.88;102200.56;5067837;28;20431;-66
2022/05/09 06:22:04;;;;;;;5.55;2.15;;;;;;;12.43;44.05;102196.16;5050986;28;20036;-65
2022/05/09 06:24:30;;;;;;;7.28;2.30;;;;;;;12.55;43.43;102193.50;5073508;28;20111;-65
2022/05/09 06:26:56;;;;;;;4.47;1.92;;;;;;;12.71;43.44;102199.66;5074027;28;20036;-66
2022/05/09 06:29:23;;;;;;;3.30;1.58;;;;;;;12.86;43.09;102196.09;5074334;28;20483;-65
2022/05/09 06:31:49;;;;;;;5.05;1.50;;;;;;;12.97;42.48;102209.28;5073836;28;20040;-66
2022/05/09 06:34:15;;;;;;;9.07;2.58;;;;;;;12.95;42.22;102197.84;5038466;28;20037;-66
2022/05/09 06:36:43;;;;;;;4.03;2.00;;;;;;;13.07;42.55;102200.44;5068931;28;20131;-66
2022/05/09 06:39:11;;;;;;;4.72;1.15;;;;;;;13.22;42.11;102213.59;5057159;28;20037;-66
2022/05/09 06:41:36;;;;;;;4.20;1.10;;;;;;;13.28;42.08;102207.44;5072658;28;20028;-66
2022/05/09 06:44:02;;;;;;;4.57;2.20;;;;;;;13.26;41.99;102209.22;5070545;28;20060;-66
2022/05/09 06:46:27;;;;;;;6.93;1.40;;;;;;;13.34;41.72;102203.91;5072996;28;20032;-66
2022/05/09 06:48:53;;;;;;;3.83;1.25;;;;;;;13.42;41.76;102200.34;5073062;28;20158;-67
2022/05/09 06:51:18;;;;;;;2.47;0.85;;;;;;;13.57;41.81;102201.16;5072327;28;20040;-66
2022/05/09 06:53:44;;;;;;;5.00;2.55;;;;;;;13.66;41.45;102206.41;5071338;28;20029;-66
2022/05/09 06:56:10;;;;;;;5.80;1.60;;;;;;;13.70;41.38;102211.66;5072553;28;20037;-67
2022/05/09 06:58:37;;;;;;;4.78;1.02;;;;;;;13.72;41.22;102203.69;5056369;28;20031;-66
2022/05/09 07:01:13;;;;;;;2.45;0.85;;;;;;;13.79;40.34;102202.78;5053792;28;20446;-67
2022/05/09 07:03:39;;;;;;;5.03;1.85;;;;;;;13.90;41.36;102208.88;5072408;28;20469;-66
2022/05/09 07:06:04;;;;;;;4.70;2.10;;;;;;;14.00;41.01;102209.69;5038380;28;20049;-65
2022/05/09 07:08:32;;;;;;;5.63;2.40;;;;;;;14.11;40.81;102204.34;5073397;28;20438;-66
2022/05/09 07:10:58;;;;;;;4.03;1.88;;;;;;;14.22;40.65;102207.78;5079769;28;20047;-66
2022/05/09 07:13:23;;;;;;;4.40;1.63;;;;;;;14.30;40.20;102205.94;5085072;28;20036;-66
2022/05/09 07:15:49;;;;;;;6.72;2.85;;;;;;;14.35;40.18;102206.78;5077307;28;20093;-66
2022/05/09 07:18:14;;;;;;;3.90;1.65;;;;;;;14.42;39.98;102203.19;5076107;28;20467;-65
2022/05/09 07:20:40;;;;;;;3.92;1.00;;;;;;;14.36;39.13;102213.81;5076770;28;20041;-65
2022/05/09 07:23:09;;;;;;;3.58;0.90;;;;;;;14.47;39.03;102219.91;5072203;28;20040;-65
2022/05/09 07:25:36;;;;;;;2.30;0.95;;;;;;;14.54;39.34;102202.25;5071015;28;20059;-65
2022/05/09 07:28:01;;;;;;;2.50;0.60;;;;;;;14.71;39.29;102210.03;5072286;28;20032;-65
2022/05/09 07:30:28;;;;;;;3.75;1.00;;;;;;;14.71;39.19;102208.25;5070449;28;20125;-64
2022/05/09 07:32:54;;;;;;;2.25;0.82;;;;;;;14.75;38.99;102206.44;5064395;28;20041;-67
2022/05/09 07:35:21;;;;;;;1.67;0.68;;;;;;;14.81;38.72;102203.75;5070855;28;20039;-66
2022/05/09 07:37:47;;;;;;;2.83;0.82;;;;;;;14.82;38.58;102207.28;5052571;28;20040;-66
2022/05/09 07:40:15;;;;;;;1.90;0.60;;;;;;;14.81;38.51;102214.34;5070406;28;20048;-66
2022/05/09 07:42:42;;;;;;;1.77;0.65;;;;;;;14.88;38.06;102213.41;5069465;28;20082;-66
2022/05/09 07:45:10;;;;;;;1.88;0.75;;;;;;;14.76;38.60;102219.69;5060910;28;20499;-66
2022/05/09 07:47:35;;;;;;;1.95;0.80;;;;;;;14.76;38.53;102218.78;5078742;28;20068;-67
2022/05/09 07:50:01;;;;;;;4.30;0.82;;;;;;;14.68;38.36;102213.59;5072557;28;20037;-67
2022/05/09 07:52:26;;;;;;;3.53;1.10;;;;;;;14.81;38.59;102206.41;5067855;28;20079;-66
2022/05/09 07:54:52;;;;;;;3.25;1.02;;;;;;;14.94;38.41;102213.31;5043876;28;20459;-66
2022/05/09 07:57:17;;;;;;;4.43;1.10;;;;;;;14.90;38.05;102210.72;5076064;28;20075;-66
2022/05/09 07:59:43;;;;;;;3.28;0.57;;;;;;;14.96;38.33;102211.53;5071680;28;20068;-66
2022/05/09 08:02:09;;;;;;;3.95;0.70;;;;;;;14.98;38.12;102209.75;5073967;28;20135;-67
2022/05/09 08:04:34;;;;;;;4.90;0.73;;;;;;;15.11;37.71;102209.59;5055899;28;20036;-66
2022/05/09 08:07:02;;;;;;;3.13;1.02;;;;;;;15.17;37.62;102202.47;5066865;28;20056;-67
2022/05/09 08:09:28;;;;;;;4.18;1.35;;;;;;;15.36;37.44;102197.84;5066403;28;20094;-67
2022/05/09 08:11:54;;;;;;;4.38;1.50;;;;;;;15.51;37.44;102202.91;5064180;28;20041;-66
2022/05/09 08:14:20;;;;;;;2.17;1.00;;;;;;;15.43;36.95;102199.47;5068961;28;20384;-66
2022/05/09 08:16:45;;;;;;;3.08;1.10;;;;;;;15.41;36.88;102198.66;5070406;28;20040;-66
2022/05/09 08:19:11;;;;;;;2.22;0.95;;;;;;;15.49;36.88;102204.72;5072901;28;20086;-66
2022/05/09 08:21:38;;;;;;;2.35;1.00;;;;;;;15.51;35.89;102205.56;5072735;28;20063;-66
2022/05/09 08:24:08;;;;;;;1.77;0.50;;;;;;;15.56;35.43;102202.88;5039319;28;20484;-66
2022/05/09 08:26:34;;;;;;;4.32;0.80;;;;;;;15.60;35.63;102203.69;5056254;28;20082;-66
2022/05/09 08:29:00;;;;;;;2.92;0.77;;;;;;;15.63;35.34;102203.66;5052554;28;20115;-66
2022/05/09 08:31:26;;;;;;;2.70;0.40;;;;;;;15.75;35.64;102206.16;5052686;28;20068;-66
2022/05/09 08:33:53;;;;;;;2.28;0.50;;;;;;;15.75;35.22;102199.06;5052341;28;20032;-66
2022/05/09 08:39:07;;;;;;;2.28;0.40;;;;;;;16.06;34.94;102201.28;5063770;28;20044;-66
2022/05/09 08:41:59;;;;;;;1.65;0.40;;;;;;;16.10;33.15;102199.47;5071399;28;20037;-66
2022/05/09 08:44:27;;;;;;;1.95;0.50;;;;;;;16.09;34.76;102206.53;5086548;28;20548;-66
2022/05/09 08:47:11;;;;;;;2.30;1.23;;;;;;;16.10;32.46;102202.09;5082653;28;20044;-66
2022/05/09 08:50:10;;;;;;;1.38;0.43;;;;;;;16.18;31.49;102205.50;5073354;28;20468;-66
2022/05/09 08:52:44;;;;;;;2.72;0.60;;;;;;;16.28;33.19;102201.81;5073326;28;20502;-65
2022/05/09 08:55:12;;;;;;;1.52;0.70;;;;;;;16.34;33.46;102204.34;5073136;28;20426;-67
2022/05/09 08:57:44;;;;;;;2.28;0.90;;;;;;;16.43;33.32;102206.84;5071904;28;20403;-65
2022/05/09 09:00:15;;;;;;;1.98;0.70;;;;;;;16.41;32.39;102211.31;5072213;28;20048;-67
2022/05/09 09:02:55;;;;;;;1.55;0.50;;;;;;;16.45;31.42;102202.41;5071881;28;20032;-67
2022/05/09 09:05:24;;;;;;;3.38;1.08;;;;;;;16.64;32.66;102207.41;5068664;28;20028;-67
2022/05/09 09:08:00;;;;;;;2.58;0.50;;;;;;;16.62;32.10;102209.19;5070945;28;20473;-66
2022/05/09 09:10:39;;;;;;;2.35;0.55;;;;;;;16.62;31.46;102206.53;5070957;28;20028;-67
2022/05/09 09:13:49;;;;;;;4.07;0.60;;;;;;;16.80;29.49;102216.88;5070690;28;20037;-67
2022/05/09 09:16:18;;;;;;;4.97;0.73;;;;;;;16.74;31.64;102212.53;5071960;28;20540;-69
2022/05/09 09:19:11;;;;;;;2.42;0.50;;;;;;;16.83;29.98;102210.59;5072239;28;20426;-67
2022/05/09 09:21:48;;;;;;;2.58;0.60;;;;;;;16.97;30.34;102204.13;5068703;28;20488;-67
2022/05/09 09:24:33;;;;;;;4.82;0.47;;;;;;;16.67;27.06;102205.53;5070392;28;20028;-67
2022/05/09 09:27:01;;;;;;;1.45;0.30;;;;;;;16.68;29.79;102203.78;5063190;28;20032;-66
2022/05/09 09:29:43;;;;;;;2.55;0.60;;;;;;;16.71;28.87;102193.09;5072485;28;20035;-67
2022/05/09 09:32:12;;;;;;;1.83;0.80;;;;;;;16.84;30.65;102197.31;5070290;28;20033;-67
2022/05/09 09:34:54;;;;;;;1.10;0.50;;;;;;;16.74;27.68;102190.44;5051265;28;20115;-67
2022/05/09 09:37:24;;;;;;;1.58;0.50;;;;;;;16.74;30.04;102187.78;5064617;28;20396;-67
2022/05/09 09:39:50;;;;;;;1.85;0.45;;;;;;;16.89;30.35;102191.91;5070711;28;20040;-67
2022/05/09 09:42:15;;;;;;;1.25;0.40;;;;;;;17.05;29.22;102195.16;5037573;28;20032;-67
2022/05/09 09:44:45;;;;;;;1.70;0.50;;;;;;;17.20;29.11;102187.75;5072055;28;20028;-67
2022/05/09 09:47:24;;;;;;;1.95;0.80;;;;;;;17.38;29.12;102178.50;5083843;28;20115;-67
2022/05/09 09:50:20;;;;;;;1.33;0.65;;;;;;;17.63;26.51;102180.63;5071754;28;20119;-67
2022/05/09 09:52:52;;;;;;;1.10;0.40;;;;;;;17.79;28.53;102166.09;5069108;28;20025;-67
2022/05/09 09:55:30;;;;;;;1.00;0.45;;;;;;;17.87;26.79;102171.25;5070810;28;20078;-67
2022/05/09 09:57:59;;;;;;;1.02;0.47;;;;;;;18.01;28.90;102171.78;5070089;28;20373;-66
2022/05/09 10:00:30;;;;;;;2.33;0.70;;;;;;;18.14;28.66;102167.03;5070999;28;20457;-67
2022/05/09 10:03:15;;;;;;;1.08;0.38;;;;;;;18.08;26.13;102169.88;5071769;28;20029;-67
2022/05/09 10:05:43;;;;;;;2.97;1.38;;;;;;;18.13;28.27;102168.84;5068512;28;20037;-66
2022/05/09 10:08:45;;;;;;;1.52;0.80;;;;;;;18.17;26.42;102162.53;5053890;28;20040;-67
2022/05/09 10:11:19;;;;;;;0.93;0.43;;;;;;;18.26;27.29;102160.53;5025016;28;20029;-67
2022/05/09 10:13:48;;;;;;;2.05;0.50;;;;;;;18.31;28.21;102159.53;5068028;28;20037;-66
2022/05/09 10:16:31;;;;;;;2.80;1.15;;;;;;;18.34;28.03;102156.75;5070545;28;20043;-67
2022/05/09 10:19:03;;;;;;;2.45;0.90;;;;;;;18.27;27.30;102157.81;5078520;28;20041;-68
2022/05/09 10:24:49;;;;;;;4.45;0.90;;;;;;;18.53;25.50;102143.84;5075124;28;20257;-67
2022/05/09 10:27:21;;;;;;;2.92;0.50;;;;;;;18.42;25.92;102149.44;5074457;28;20506;-68
2022/05/09 10:29:53;;;;;;;1.05;0.50;;;;;;;18.59;27.24;102150.78;5074863;28;20031;-67
2022/05/09 10:32:40;;;;;;;1.15;0.52;;;;;;;18.69;26.04;102145.19;5074333;28;20032;-68
2022/05/09 10:35:14;;;;;;;2.35;0.80;;;;;;;18.78;25.99;102144.06;5068118;28;20055;-68
2022/05/09 10:37:43;;;;;;;6.95;0.80;;;;;;;18.99;26.13;102137.28;5072957;28;20036;-68
2022/05/09 10:40:15;;;;;;;11.25;6.90;;;;;;;19.23;25.07;102135.69;5067462;28;20027;-67
2022/05/09 10:42:43;;;;;;;;;;;;;;;19.47;24.52;102133.19;5073458;28;20040;-68
2022/05/09 10:45:23;;;;;;;3.55;2.10;;;;;;;19.62;24.33;102128.28;5075059;28;20267;-68
2022/05/09 10:48:01;;;;;;;1.33;0.75;;;;;;;19.82;26.10;102129.44;5075254;28;20111;-68
2022/05/09 10:50:35;;;;;;;2.00;0.77;;;;;;;20.02;24.81;102123.44;5074509;28;20032;-67
2022/05/09 10:53:06;;;;;;;1.52;0.60;;;;;;;20.17;24.31;102125.59;5069308;28;20149;-68
2022/05/09 10:55:43;;;;;;;1.83;0.47;;;;;;;20.19;24.00;102129.09;5065738;28;20035;-67
2022/05/09 10:58:35;;;;;;;5.18;0.98;;;;;;;20.20;24.00;102124.63;5070212;28;20036;-68
2022/05/09 11:01:29;;;;;;;2.03;0.88;;;;;;;20.24;22.94;102115.59;5075439;28;20033;-69
2022/05/09 11:03:55;;;;;;;2.88;0.90;;;;;;;20.33;25.30;102117.94;5074553;28;20044;-68
2022/05/09 11:06:25;;;;;;;2.63;0.70;;;;;;;20.23;23.35;102111.16;5058120;28;20052;-68
2022/05/09 11:08:54;;;;;;;1.80;0.90;;;;;;;20.39;24.82;102113.25;5073348;28;20515;-68
2022/05/09 11:11:46;;;;;;;1.33;0.70;;;;;;;20.41;23.34;102107.84;5067936;28;20032;-67
2022/05/09 11:14:27;;;;;;;2.10;0.70;;;;;;;20.47;22.53;102104.97;5072607;28;20480;-68
2022/05/09 11:16:58;;;;;;;5.72;3.25;;;;;;;20.38;24.41;102114.16;5073882;28;20040;-68
2022/05/09 11:19:25;;;;;;;7.65;3.40;;;;;;;20.45;24.52;102111.28;5072954;28;20476;-67
2022/05/09 11:22:03;;;;;;;3.45;1.65;;;;;;;20.60;23.83;102097.41;5072603;28;20142;-68
2022/05/09 11:24:45;;;;;;;1.75;1.05;;;;;;;20.61;21.98;102104.50;5084188;28;20044;-68
2022/05/09 11:27:17;;;;;;;2.45;0.82;;;;;;;20.58;23.44;102091.25;5073771;28;20031;-68
2022/05/09 11:30:06;;;;;;;3.35;0.90;;;;;;;20.70;24.25;102095.28;5073043;28;20522;-67
2022/05/09 11:32:43;;;;;;;1.63;0.73;;;;;;;20.74;21.71;102088.88;5087902;28;20044;-68
2022/05/09 11:35:33;;;;;;;3.30;1.10;;;;;;;20.97;21.30;102090.72;5074653;28;20089;-68
2022/05/09 11:38:29;;;;;;;1.80;0.80;;;;;;;21.15;21.42;102085.53;5072972;28;20377;-68
2022/05/09 11:41:31;;;;;;;1.55;0.85;;;;;;;21.43;21.44;102088.97;5070412;28;20129;-67
2022/05/09 11:44:14;;;;;;;2.95;1.30;;;;;;;21.78;22.34;102090.16;5072426;28;20036;-67
2022/05/09 11:47:08;;;;;;;2.17;0.95;;;;;;;21.84;20.69;102085.44;5074524;28;20028;-68
2022/05/09 11:49:43;;;;;;;2.00;0.70;;;;;;;21.59;20.33;102076.69;5077772;28;20124;-68
2022/05/09 11:52:30;;;;;;;2.47;0.82;;;;;;;21.41;21.09;102075.63;5073740;28;20032;-69
2022/05/09 11:55:06;;;;;;;1.40;0.65;;;;;;;21.26;21.75;102070.84;5070810;28;20039;-69